RYR346F LOWW-LIEE
Flight info
| Callsign | RYR346F |
|---|---|
| Flight time | N/A |
| Altitude | 30000 |
| Route | RUPET DCT GRZ DCT RADLY/N0435F380 DCT ARLON DCT BAXON/N0436F370 DCT GITRI DCT LABOM/N0337F190 Q125 KOVAS |
| Aircraft | B738/M-SDE2E3FGHIRWXY/LB1 |
Departure
| Time | 2026-05-04 09:08 |
|---|---|
| Airport | Vienna International Airport (LOWW) |
Arrival
| Time | N/A |
|---|---|
| Airport | Cagliari Elmas Airport (LIEE) |
| Time | Latitude | Longitude | Altitude | Speed | Heading |
|---|---|---|---|---|---|
| 2026-05-04 08:40 | 48.12083 | 16.55482 | 618 ft | 0 kts | 296° |
| 2026-05-04 09:02 | 48.12084 | 16.55480 | 634 ft | 1 kts | 296° |
| 2026-05-04 09:02 | 48.12093 | 16.55444 | 617 ft | 7 kts | 283° |
| 2026-05-04 09:03 | 48.12062 | 16.55385 | 620 ft | 9 kts | 205° |
| 2026-05-04 09:03 | 48.12003 | 16.55342 | 619 ft | 10 kts | 205° |
| 2026-05-04 09:03 | 48.11933 | 16.55318 | 614 ft | 11 kts | 148° |
| 2026-05-04 09:03 | 48.11895 | 16.55421 | 614 ft | 12 kts | 110° |
| 2026-05-04 09:04 | 48.11862 | 16.55553 | 611 ft | 15 kts | 116° |
| 2026-05-04 09:04 | 48.11810 | 16.55712 | 614 ft | 18 kts | 116° |
| 2026-05-04 09:04 | 48.11750 | 16.55897 | 616 ft | 21 kts | 116° |
| 2026-05-04 09:04 | 48.11682 | 16.56106 | 615 ft | 23 kts | 116° |
| 2026-05-04 09:05 | 48.11608 | 16.56331 | 612 ft | 25 kts | 116° |
| 2026-05-04 09:05 | 48.11529 | 16.56574 | 620 ft | 27 kts | 115° |
| 2026-05-04 09:05 | 48.11447 | 16.56827 | 608 ft | 27 kts | 116° |
| 2026-05-04 09:05 | 48.11367 | 16.57073 | 615 ft | 25 kts | 115° |
| 2026-05-04 09:06 | 48.11292 | 16.57303 | 617 ft | 24 kts | 115° |
| 2026-05-04 09:07 | 48.10347 | 16.58508 | 619 ft | 108 kts | 164° |
| 2026-05-04 09:08 | 48.09436 | 16.58891 | 671 ft | 158 kts | 163° |
| 2026-05-04 09:08 | 48.08403 | 16.59307 | 1555 ft | 148 kts | 164° |
| 2026-05-04 09:08 | 48.07381 | 16.59731 | 2339 ft | 149 kts | 167° |
| 2026-05-04 09:08 | 48.06329 | 16.60038 | 2864 ft | 166 kts | 186° |
| 2026-05-04 09:09 | 48.05271 | 16.59225 | 3160 ft | 189 kts | 223° |
| 2026-05-04 09:09 | 48.04366 | 16.57691 | 3520 ft | 204 kts | 227° |
| 2026-05-04 09:09 | 48.03357 | 16.56048 | 3806 ft | 223 kts | 225° |
| 2026-05-04 09:09 | 48.02222 | 16.54269 | 4054 ft | 247 kts | 225° |
| 2026-05-04 09:10 | 48.00998 | 16.52370 | 4667 ft | 259 kts | 225° |
| 2026-05-04 09:10 | 47.99761 | 16.50458 | 5612 ft | 256 kts | 225° |
| 2026-05-04 09:10 | 47.98498 | 16.48515 | 6314 ft | 263 kts | 224° |
| 2026-05-04 09:10 | 47.97207 | 16.46597 | 7188 ft | 262 kts | 223° |
| 2026-05-04 09:11 | 47.95889 | 16.44674 | 7873 ft | 269 kts | 223° |
| 2026-05-04 09:11 | 47.94548 | 16.42720 | 8668 ft | 269 kts | 223° |
| 2026-05-04 09:11 | 47.93191 | 16.40741 | 9421 ft | 271 kts | 223° |
| 2026-05-04 09:11 | 47.91829 | 16.38755 | 10138 ft | 275 kts | 223° |
| 2026-05-04 09:12 | 47.90438 | 16.36730 | 10449 ft | 295 kts | 223° |
| 2026-05-04 09:12 | 47.88922 | 16.34524 | 10716 ft | 313 kts | 222° |
| 2026-05-04 09:14 | 47.77343 | 16.17672 | 15333 ft | 346 kts | 224° |
| 2026-05-04 09:14 | 47.75614 | 16.15164 | 16052 ft | 348 kts | 224° |
| 2026-05-04 09:14 | 47.73870 | 16.12637 | 16743 ft | 352 kts | 224° |
| 2026-05-04 09:14 | 47.72110 | 16.10090 | 17417 ft | 355 kts | 224° |
| 2026-05-04 09:15 | 47.70330 | 16.07516 | 18091 ft | 359 kts | 224° |
| 2026-05-04 09:15 | 47.68528 | 16.04914 | 18700 ft | 363 kts | 224° |
| 2026-05-04 09:15 | 47.66707 | 16.02286 | 19288 ft | 367 kts | 224° |
| 2026-05-04 09:15 | 47.64894 | 15.99671 | 19831 ft | 371 kts | 224° |
| 2026-05-04 09:17 | 47.50084 | 15.78419 | 23850 ft | 401 kts | 224° |
| 2026-05-04 09:18 | 47.48045 | 15.75567 | 24229 ft | 405 kts | 220° |
| 2026-05-04 09:18 | 47.45737 | 15.73129 | 24621 ft | 410 kts | 211° |
| 2026-05-04 09:18 | 47.43175 | 15.71280 | 25113 ft | 412 kts | 202° |
| 2026-05-04 09:18 | 47.40494 | 15.69776 | 25581 ft | 413 kts | 201° |
| 2026-05-04 09:19 | 47.37775 | 15.68296 | 25929 ft | 418 kts | 201° |
| 2026-05-04 09:19 | 47.35024 | 15.66803 | 26262 ft | 422 kts | 202° |
| 2026-05-04 09:19 | 47.32254 | 15.65286 | 26613 ft | 426 kts | 202° |
| 2026-05-04 09:19 | 47.29465 | 15.63747 | 27004 ft | 428 kts | 202° |
| 2026-05-04 09:20 | 47.26704 | 15.62214 | 27397 ft | 431 kts | 202° |
| 2026-05-04 09:20 | 47.23892 | 15.60648 | 27769 ft | 433 kts | 202° |
| 2026-05-04 09:20 | 47.21064 | 15.59071 | 28132 ft | 436 kts | 202° |
| 2026-05-04 09:20 | 47.18222 | 15.57488 | 28485 ft | 438 kts | 202° |
| 2026-05-04 09:21 | 47.15360 | 15.55896 | 28829 ft | 441 kts | 202° |
| 2026-05-04 09:21 | 47.12480 | 15.54296 | 29159 ft | 444 kts | 202° |
| 2026-05-04 09:21 | 47.09582 | 15.52688 | 29506 ft | 446 kts | 202° |
| 2026-05-04 09:21 | 47.06668 | 15.51072 | 29825 ft | 449 kts | 202° |
| 2026-05-04 09:22 | 47.03740 | 15.49452 | 30143 ft | 451 kts | 202° |
| 2026-05-04 09:22 | 47.00798 | 15.47815 | 30401 ft | 453 kts | 203° |
| 2026-05-04 09:22 | 46.97841 | 15.46175 | 30666 ft | 455 kts | 202° |
| 2026-05-04 09:22 | 46.94888 | 15.44489 | 30990 ft | 454 kts | 206° |
| 2026-05-04 09:23 | 46.92069 | 15.42442 | 31380 ft | 451 kts | 210° |
| 2026-05-04 09:23 | 46.89353 | 15.40278 | 31759 ft | 450 kts | 211° |
| 2026-05-04 09:23 | 46.86580 | 15.38026 | 32110 ft | 449 kts | 211° |
| 2026-05-04 09:23 | 46.83886 | 15.35854 | 32433 ft | 449 kts | 211° |
| 2026-05-04 09:25 | 46.64676 | 15.20877 | 34700 ft | 444 kts | 211° |
| 2026-05-04 09:25 | 46.61945 | 15.18766 | 34974 ft | 444 kts | 211° |
| 2026-05-04 09:26 | 46.59218 | 15.16663 | 35231 ft | 443 kts | 211° |
| 2026-05-04 09:26 | 46.56528 | 15.14593 | 35508 ft | 442 kts | 211° |
| 2026-05-04 09:26 | 46.53812 | 15.12506 | 35792 ft | 441 kts | 211° |
| 2026-05-04 09:26 | 46.51100 | 15.10424 | 36068 ft | 440 kts | 211° |
| 2026-05-04 09:27 | 46.48390 | 15.08347 | 36326 ft | 440 kts | 211° |
| 2026-05-04 09:27 | 46.45688 | 15.06277 | 36585 ft | 439 kts | 211° |
| 2026-05-04 09:27 | 46.42990 | 15.04211 | 36851 ft | 438 kts | 211° |
| 2026-05-04 09:27 | 46.40299 | 15.02140 | 37088 ft | 437 kts | 211° |
| 2026-05-04 09:28 | 46.37644 | 15.00015 | 37328 ft | 436 kts | 212° |
| 2026-05-04 09:28 | 46.35019 | 14.97867 | 37744 ft | 430 kts | 213° |
| 2026-05-04 09:28 | 46.32431 | 14.95738 | 38113 ft | 427 kts | 213° |
| 2026-05-04 09:28 | 46.29832 | 14.93599 | 38095 ft | 431 kts | 213° |
| 2026-05-04 09:29 | 46.24600 | 14.89318 | 38108 ft | 431 kts | 212° |
| 2026-05-04 09:29 | 46.19392 | 14.85090 | 38110 ft | 427 kts | 212° |
| 2026-05-04 09:30 | 46.14223 | 14.80910 | 38120 ft | 425 kts | 212° |
| 2026-05-04 09:30 | 46.09109 | 14.76784 | 38128 ft | 423 kts | 212° |
| 2026-05-04 09:31 | 46.03965 | 14.72643 | 38125 ft | 424 kts | 212° |
| 2026-05-04 09:31 | 45.98809 | 14.68499 | 38129 ft | 425 kts | 212° |
| 2026-05-04 09:32 | 45.93634 | 14.64349 | 38125 ft | 426 kts | 212° |
| 2026-05-04 09:34 | 45.72756 | 14.47700 | 38122 ft | 432 kts | 212° |
| 2026-05-04 09:34 | 45.67482 | 14.43518 | 38116 ft | 433 kts | 212° |
| 2026-05-04 09:35 | 45.62207 | 14.39344 | 38125 ft | 433 kts | 212° |
| 2026-05-04 09:35 | 45.56936 | 14.35182 | 38129 ft | 433 kts | 212° |
| 2026-05-04 09:37 | 45.35943 | 14.18695 | 38140 ft | 429 kts | 212° |
| 2026-05-04 09:38 | 45.30716 | 14.14611 | 38137 ft | 428 kts | 212° |
| 2026-05-04 09:38 | 45.25494 | 14.10540 | 38127 ft | 427 kts | 212° |
| 2026-05-04 09:39 | 45.20316 | 14.06511 | 38130 ft | 426 kts | 212° |
| 2026-05-04 09:39 | 45.15115 | 14.02475 | 38131 ft | 425 kts | 212° |
| 2026-05-04 09:40 | 45.09921 | 13.98450 | 38120 ft | 425 kts | 212° |
| 2026-05-04 09:40 | 45.04732 | 13.94439 | 38132 ft | 425 kts | 212° |
| 2026-05-04 09:42 | 44.83946 | 13.78453 | 38155 ft | 427 kts | 211° |
| 2026-05-04 09:43 | 44.78718 | 13.74454 | 38150 ft | 428 kts | 211° |
| 2026-05-04 09:43 | 44.73486 | 13.70460 | 38142 ft | 428 kts | 211° |
| 2026-05-04 09:44 | 44.68255 | 13.66474 | 38139 ft | 428 kts | 211° |
| 2026-05-04 09:46 | 44.47335 | 13.50621 | 38130 ft | 426 kts | 211° |
| 2026-05-04 09:46 | 44.42125 | 13.46687 | 38130 ft | 425 kts | 212° |
| 2026-05-04 09:47 | 44.37263 | 13.42132 | 38137 ft | 422 kts | 218° |
| 2026-05-04 09:49 | 44.18342 | 13.22752 | 38131 ft | 421 kts | 218° |
| 2026-05-04 09:51 | 44.01769 | 13.06127 | 38122 ft | 420 kts | 218° |
| 2026-05-04 09:51 | 43.97029 | 13.01392 | 38130 ft | 420 kts | 218° |
| 2026-05-04 09:52 | 43.92289 | 12.96667 | 38131 ft | 419 kts | 218° |
| 2026-05-04 09:52 | 43.87544 | 12.91947 | 38117 ft | 419 kts | 218° |
| 2026-05-04 09:53 | 43.82805 | 12.87242 | 38130 ft | 419 kts | 218° |
| 2026-05-04 09:53 | 43.78061 | 12.82542 | 38129 ft | 419 kts | 218° |
| 2026-05-04 09:54 | 43.73317 | 12.77850 | 38130 ft | 419 kts | 218° |
| 2026-05-04 09:54 | 43.68572 | 12.73167 | 38137 ft | 419 kts | 217° |
| 2026-05-04 09:55 | 43.63827 | 12.68494 | 38136 ft | 419 kts | 217° |
| 2026-05-04 09:55 | 43.59079 | 12.63826 | 38140 ft | 419 kts | 217° |
| 2026-05-04 09:56 | 43.54328 | 12.59165 | 38138 ft | 419 kts | 217° |
| 2026-05-04 09:56 | 43.49583 | 12.54519 | 38151 ft | 418 kts | 217° |
| 2026-05-04 09:57 | 43.44866 | 12.49910 | 38158 ft | 418 kts | 217° |
| 2026-05-04 09:57 | 43.40116 | 12.45276 | 38162 ft | 418 kts | 217° |
| 2026-05-04 09:58 | 43.35363 | 12.40650 | 38161 ft | 418 kts | 217° |
| 2026-05-04 09:58 | 43.30611 | 12.36035 | 38167 ft | 418 kts | 217° |
| 2026-05-04 10:00 | 43.11443 | 12.17524 | 38173 ft | 424 kts | 218° |
| 2026-05-04 10:04 | 42.77413 | 11.84979 | 38179 ft | 426 kts | 219° |
| 2026-05-04 10:04 | 42.72551 | 11.80366 | 38176 ft | 425 kts | 219° |
| 2026-05-04 10:05 | 42.67702 | 11.75774 | 38179 ft | 424 kts | 219° |
| 2026-05-04 10:05 | 42.62895 | 11.71230 | 38179 ft | 423 kts | 219° |
| 2026-05-04 10:06 | 42.58068 | 11.66677 | 38187 ft | 422 kts | 219° |
| 2026-05-04 10:06 | 42.53248 | 11.62138 | 38175 ft | 421 kts | 219° |
| 2026-05-04 10:08 | 42.37346 | 11.47228 | 38168 ft | 414 kts | 220° |
| 2026-05-04 10:08 | 42.32613 | 11.42808 | 38174 ft | 412 kts | 220° |
| 2026-05-04 10:09 | 42.27898 | 11.38411 | 38173 ft | 411 kts | 220° |
| 2026-05-04 10:09 | 42.23189 | 11.34030 | 38175 ft | 411 kts | 220° |
| 2026-05-04 10:10 | 42.18477 | 11.29653 | 38176 ft | 411 kts | 220° |
| 2026-05-04 10:10 | 42.13763 | 11.25282 | 38170 ft | 412 kts | 220° |
| 2026-05-04 10:11 | 42.09038 | 11.20910 | 38170 ft | 412 kts | 220° |
| 2026-05-04 10:11 | 42.04300 | 11.16533 | 38163 ft | 413 kts | 220° |
| 2026-05-04 10:12 | 41.99561 | 11.12165 | 38167 ft | 414 kts | 220° |
| 2026-05-04 10:12 | 41.94806 | 11.07789 | 38167 ft | 414 kts | 220° |
| 2026-05-04 10:13 | 41.90044 | 11.03414 | 38166 ft | 415 kts | 220° |
| 2026-05-04 10:13 | 41.85306 | 10.99071 | 38157 ft | 415 kts | 220° |
| 2026-05-04 10:14 | 41.80536 | 10.94706 | 38160 ft | 415 kts | 220° |
| 2026-05-04 10:16 | 41.61455 | 10.77324 | 38147 ft | 413 kts | 221° |
| 2026-05-04 10:16 | 41.56719 | 10.73029 | 38150 ft | 413 kts | 221° |
| 2026-05-04 10:17 | 41.51967 | 10.68728 | 38150 ft | 412 kts | 221° |
| 2026-05-04 10:19 | 41.32989 | 10.51625 | 38132 ft | 411 kts | 221° |
| 2026-05-04 10:19 | 41.28248 | 10.47372 | 38122 ft | 410 kts | 221° |
| 2026-05-04 10:20 | 41.23519 | 10.43136 | 38136 ft | 410 kts | 221° |
| 2026-05-04 10:20 | 41.18785 | 10.38902 | 37834 ft | 413 kts | 221° |
| 2026-05-04 10:21 | 41.16413 | 10.36786 | 37559 ft | 407 kts | 221° |
| 2026-05-04 10:21 | 41.14080 | 10.34710 | 37175 ft | 401 kts | 221° |
| 2026-05-04 10:21 | 41.11805 | 10.32686 | 36787 ft | 397 kts | 221° |
| 2026-05-04 10:21 | 41.09525 | 10.30655 | 36399 ft | 393 kts | 221° |
| 2026-05-04 10:22 | 41.05044 | 10.26670 | 35674 ft | 384 kts | 221° |
| 2026-05-04 10:22 | 41.02835 | 10.24705 | 35306 ft | 381 kts | 221° |
| 2026-05-04 10:22 | 41.00642 | 10.22756 | 34941 ft | 378 kts | 221° |
| 2026-05-04 10:23 | 40.98470 | 10.20827 | 34567 ft | 375 kts | 221° |
| 2026-05-04 10:23 | 40.96312 | 10.18915 | 34216 ft | 372 kts | 221° |
| 2026-05-04 10:25 | 40.83993 | 10.03550 | 31899 ft | 334 kts | 233° |
| 2026-05-04 10:25 | 40.82404 | 10.01329 | 31565 ft | 332 kts | 233° |
| 2026-05-04 10:25 | 40.80823 | 9.99124 | 31238 ft | 329 kts | 233° |
| 2026-05-04 10:25 | 40.79253 | 9.96938 | 30908 ft | 327 kts | 233° |
| 2026-05-04 10:26 | 40.77689 | 9.94762 | 30583 ft | 325 kts | 233° |
| 2026-05-04 10:26 | 40.76158 | 9.92635 | 30268 ft | 323 kts | 233° |
| 2026-05-04 10:26 | 40.74593 | 9.90464 | 29900 ft | 321 kts | 233° |
| 2026-05-04 10:26 | 40.73079 | 9.88364 | 29550 ft | 321 kts | 233° |
| 2026-05-04 10:27 | 40.71527 | 9.86208 | 29223 ft | 330 kts | 232° |
| 2026-05-04 10:27 | 40.69917 | 9.83968 | 28846 ft | 341 kts | 232° |
| 2026-05-04 10:27 | 40.68281 | 9.81703 | 28471 ft | 340 kts | 232° |
| 2026-05-04 10:27 | 40.66661 | 9.79469 | 28132 ft | 336 kts | 232° |
| 2026-05-04 10:28 | 40.65056 | 9.77257 | 27755 ft | 333 kts | 232° |
| 2026-05-04 10:28 | 40.63464 | 9.75064 | 27405 ft | 330 kts | 232° |